Time;durP1;ratioP1;P1;durP2;ratioP2;P2;SDS_P1;SDS_P2;PMS_P1;PMS_P2;Temp;Humidity;BMP_temperature;BMP_pressure;BME280_temperature;BME280_humidity;BME280_pressure;Samples;Min_cycle;Max_cycle;Signal;HPM_P1;HPM_P2
2023/01/20 00:01:29;;;;;;;;;;;;;;;;;;5008925;28;19913;-82
2023/01/20 00:03:55;;;;;;;;;;;;;;;;;;5005952;28;20409;-81
2023/01/20 00:06:21;;;;;;;;;;;;;;;;;;4999214;28;19936;-81
2023/01/20 00:08:46;;;;;;;;;;;;;;;;;;4972747;28;19918;-81
2023/01/20 00:11:11;;;;;;;;;;;;;;;;;;5004855;28;19961;-81
2023/01/20 00:13:37;;;;;;;;;;;;;;;;;;5003973;28;19921;-81
2023/01/20 00:16:02;;;;;;;;;;;;;;;;;;4986405;28;19921;-82
2023/01/20 00:18:28;;;;;;;;;;;;;;;;;;4987470;28;19914;-81
2023/01/20 00:20:53;;;;;;;;;;;;;;;;;;5003895;28;19914;-81
2023/01/20 00:23:18;;;;;;;;;;;;;;;;;;5006958;28;19913;-81
2023/01/20 00:25:44;;;;;;;;;;;;;;;;;;5022603;28;19928;-81
2023/01/20 00:28:09;;;;;;;;;;;;;;;;;;5014821;28;19913;-81
2023/01/20 00:30:35;;;;;;;;;;;;;;;;;;5013725;28;19920;-81
2023/01/20 00:33:00;;;;;;;;;;;;;;;;;;5014126;28;19920;-81
2023/01/20 00:35:25;;;;;;;;;;;;;;;;;;5014301;28;19921;-81
2023/01/20 00:37:51;;;;;;;;;;;;;;;;;;5016290;28;20000;-81
2023/01/20 00:40:16;;;;;;;;;;;;;;;;;;5015762;28;19914;-81
2023/01/20 00:42:41;;;;;;;;;;;;;;;;;;5015827;28;20416;-81
2023/01/20 00:45:07;;;;;;;;;;;;;;;;;;4998089;28;19921;-81
2023/01/20 00:47:32;;;;;;;;;;;;;;;;;;5016533;28;19940;-82
2023/01/20 00:49:58;;;;;;;;;;;;;;;;;;5016338;28;20510;-80
2023/01/20 00:52:23;;;;;;;;;;;;;;;;;;4998988;28;19913;-81
2023/01/20 00:54:49;;;;;;;;;;;;;;;;;;5014959;28;19924;-81
2023/01/20 00:57:14;;;;;;;;;;;;;;;;;;5015697;28;20382;-81
2023/01/20 00:59:39;;;;;;;;;;;;;;;;;;4998055;28;20401;-80
2023/01/20 01:02:05;;;;;;;;;;;;;;;;;;4997907;28;19920;-80
2023/01/20 01:04:30;;;;;;;;;;;;;;;;;;4997667;28;19929;-80
2023/01/20 01:06:55;;;;;;;;;;;;;;;;;;4997262;28;19924;-80
2023/01/20 01:09:21;;;;;;;;;;;;;;;;;;5014926;28;19920;-81
2023/01/20 01:11:46;;;;;;;;;;;;;;;;;;5005605;28;19918;-81
2023/01/20 01:14:11;;;;;;;;;;;;;;;;;;4994102;28;20298;-81
2023/01/20 01:16:37;;;;;;;;;;;;;;;;;;4992515;28;20282;-80
2023/01/20 01:19:02;;;;;;;;;;;;;;;;;;4976113;28;20011;-80
2023/01/20 01:21:27;;;;;;;;;;;;;;;;;;4992540;28;19914;-81
2023/01/20 01:23:53;;;;;;;;;;;;;;;;;;4992286;28;19992;-80
2023/01/20 01:26:18;;;;;;;;;;;;;;;;;;4976376;28;19914;-81
2023/01/20 01:28:43;;;;;;;;;;;;;;;;;;4992682;28;19914;-81
2023/01/20 01:31:09;;;;;;;;;;;;;;;;;;4979590;28;19938;-80
2023/01/20 01:33:34;;;;;;;;;;;;;;;;;;4978348;28;19921;-80
2023/01/20 01:36:00;;;;;;;;;;;;;;;;;;4995497;28;19921;-80
2023/01/20 01:38:25;;;;;;;;;;;;;;;;;;4978875;28;19914;-80
2023/01/20 01:40:50;;;;;;;;;;;;;;;;;;4981518;28;19964;-81
2023/01/20 01:43:16;;;;;;;;;;;;;;;;;;4985385;28;19914;-81
2023/01/20 01:45:41;;;;;;;;;;;;;;;;;;5014639;28;19968;-81
2023/01/20 01:48:06;;;;;;;;;;;;;;;;;;5016540;28;19917;-81
2023/01/20 01:50:32;;;;;;;;;;;;;;;;;;5017526;28;19913;-82
2023/01/20 01:52:57;;;;;;;;;;;;;;;;;;5000473;28;20402;-81
2023/01/20 01:55:22;;;;;;;;;;;;;;;;;;5021815;28;19917;-81
2023/01/20 01:57:48;;;;;;;;;;;;;;;;;;5027767;28;20370;-81
2023/01/20 02:00:13;;;;;;;;;;;;;;;;;;5022373;28;19984;-80
2023/01/20 02:02:38;;;;;;;;;;;;;;;;;;5003951;28;19909;-80
2023/01/20 02:05:04;;;;;;;;;;;;;;;;;;5022833;28;19913;-80
2023/01/20 02:07:29;;;;;;;;;;;;;;;;;;4985407;28;19920;-79
2023/01/20 02:09:55;;;;;;;;;;;;;;;;;;5023690;28;20012;-80
2023/01/20 02:12:20;;;;;;;;;;;;;;;;;;5004500;28;19918;-80
2023/01/20 02:14:45;;;;;;;;;;;;;;;;;;5019942;28;19917;-80
2023/01/20 02:17:11;;;;;;;;;;;;;;;;;;4998935;28;20121;-81
2023/01/20 02:19:36;;;;;;;;;;;;;;;;;;4998247;28;19918;-81
2023/01/20 02:22:01;;;;;;;;;;;;;;;;;;4980054;28;19921;-81
2023/01/20 02:24:27;;;;;;;;;;;;;;;;;;4996263;28;20020;-80
2023/01/20 02:26:52;;;;;;;;;;;;;;;;;;4997487;28;19921;-81
2023/01/20 02:29:18;;;;;;;;;;;;;;;;;;4981079;28;19918;-81
2023/01/20 02:31:43;;;;;;;;;;;;;;;;;;4981137;28;19914;-81
2023/01/20 02:34:24;;;;;;;;;;;;;;;;;;4964935;28;20311;-81
2023/01/20 02:36:49;;;;;;;;;;;;;;;;;;4980623;28;19914;-81
2023/01/20 02:39:15;;;;;;;;;;;;;;;;;;4998083;28;20292;-81
2023/01/20 02:41:40;;;;;;;;;;;;;;;;;;4979495;28;19910;-81
2023/01/20 02:44:06;;;;;;;;;;;;;;;;;;4995306;28;19918;-81
2023/01/20 02:46:32;;;;;;;;;;;;;;;;;;4999129;28;20357;-80
2023/01/20 02:48:57;;;;;;;;;;;;;;;;;;5016434;28;19918;-81
2023/01/20 02:51:23;;;;;;;;;;;;;;;;;;4998921;28;20044;-81
2023/01/20 02:53:48;;;;;;;;;;;;;;;;;;4998296;28;19923;-81
2023/01/20 02:56:13;;;;;;;;;;;;;;;;;;4998478;28;20383;-81
2023/01/20 02:58:39;;;;;;;;;;;;;;;;;;4982501;28;19963;-81
2023/01/20 03:01:04;;;;;;;;;;;;;;;;;;5015589;28;20394;-80
2023/01/20 03:03:30;;;;;;;;;;;;;;;;;;4998401;28;19920;-80
2023/01/20 03:05:55;;;;;;;;;;;;;;;;;;4981785;28;20503;-81
2023/01/20 03:08:20;;;;;;;;;;;;;;;;;;4998811;28;19917;-80
2023/01/20 03:10:46;;;;;;;;;;;;;;;;;;4981865;28;20267;-81
2023/01/20 03:13:12;;;;;;;;;;;;;;;;;;5016271;28;19913;-81
2023/01/20 03:15:37;;;;;;;;;;;;;;;;;;5015789;28;19918;-80
2023/01/20 03:18:03;;;;;;;;;;;;;;;;;;5014740;28;20048;-79
2023/01/20 03:20:28;;;;;;;;;;;;;;;;;;5014256;28;19920;-80
2023/01/20 03:22:53;;;;;;;;;;;;;;;;;;4996123;28;19983;-79
2023/01/20 03:25:19;;;;;;;;;;;;;;;;;;5014312;28;19914;-79
2023/01/20 03:27:44;;;;;;;;;;;;;;;;;;5014254;28;20337;-79
2023/01/20 03:30:09;;;;;;;;;;;;;;;;;;4980538;28;19913;-79
2023/01/20 03:32:35;;;;;;;;;;;;;;;;;;5015861;23;19910;-81
2023/01/20 03:35:04;;;;;;;;;;;;;;;;;;4996773;28;19949;-79
2023/01/20 03:37:30;;;;;;;;;;;;;;;;;;4981314;28;19914;-80
2023/01/20 03:39:57;;;;;;;;;;;;;;;;;;4998495;28;19913;-80
2023/01/20 03:42:23;;;;;;;;;;;;;;;;;;4981969;28;19984;-80
2023/01/20 03:44:49;;;;;;;;;;;;;;;;;;5015998;28;19914;-80
2023/01/20 03:47:15;;;;;;;;;;;;;;;;;;4997762;28;19985;-80
2023/01/20 03:49:41;;;;;;;;;;;;;;;;;;4997282;28;19909;-80
2023/01/20 03:52:07;;;;;;;;;;;;;;;;;;4965477;28;19917;-79
2023/01/20 03:54:33;;;;;;;;;;;;;;;;;;4974649;28;19942;-80
2023/01/20 03:57:02;;;;;;;;;;;;;;;;;;4961652;28;19914;-79
2023/01/20 03:59:28;;;;;;;;;;;;;;;;;;4945985;28;19921;-80
2023/01/20 04:01:54;;;;;;;;;;;;;;;;;;4945990;28;19973;-81
2023/01/20 04:04:21;;;;;;;;;;;;;;;;;;4978980;28;19914;-80
2023/01/20 04:06:47;;;;;;;;;;;;;;;;;;4962436;28;19921;-81
2023/01/20 04:09:12;;;;;;;;;;;;;;;;;;4960397;28;19914;-79
2023/01/20 04:11:38;;;;;;;;;;;;;;;;;;4944099;29;19919;-80
2023/01/20 04:14:07;;;;;;;;;;;;;;;;;;4957934;29;19922;-80
2023/01/20 04:16:33;;;;;;;;;;;;;;;;;;4957634;29;19937;-81
2023/01/20 04:19:02;;;;;;;;;;;;;;;;;;4958473;29;20070;-79
2023/01/20 04:21:29;;;;;;;;;;;;;;;;;;4958076;29;19915;-81
2023/01/20 04:23:54;;;;;;;;;;;;;;;;;;4973927;28;20427;-80
2023/01/20 04:26:23;;;;;;;;;;;;;;;;;;4953667;29;20009;-80
2023/01/20 04:28:49;;;;;;;;;;;;;;;;;;4974152;28;19933;-80
2023/01/20 04:31:24;;;;;;;;;;;;;;;;;;4958544;28;19914;-80
2023/01/20 04:33:50;;;;;;;;;;;;;;;;;;4960436;28;19958;-79
2023/01/20 04:36:16;;;;;;;;;;;;;;;;;;4961500;28;19914;-80
2023/01/20 04:38:42;;;;;;;;;;;;;;;;;;4975709;28;19914;-80
2023/01/20 04:41:08;;;;;;;;;;;;;;;;;;4974480;28;19906;-80
2023/01/20 04:43:36;;;;;;;;;;;;;;;;;;4975030;28;19921;-80
2023/01/20 04:46:02;;;;;;;;;;;;;;;;;;4989965;28;19915;-80
2023/01/20 04:48:28;;;;;;;;;;;;;;;;;;4939594;28;19921;-80
2023/01/20 04:50:54;;;;;;;;;;;;;;;;;;4972674;28;19977;-80
2023/01/20 04:53:20;;;;;;;;;;;;;;;;;;4944567;28;20264;-79
2023/01/20 04:55:45;;;;;;;;;;;;;;;;;;4974219;28;19944;-79
2023/01/20 04:58:11;;;;;;;;;;;;;;;;;;4957264;28;20399;-80
2023/01/20 05:00:37;;;;;;;;;;;;;;;;;;4956588;29;19918;-79
2023/01/20 05:03:04;;;;;;;;;;;;;;;;;;4974205;28;19977;-80
2023/01/20 05:05:31;;;;;;;;;;;;;;;;;;4958217;29;19918;-80
2023/01/20 05:07:56;;;;;;;;;;;;;;;;;;4961325;29;19945;-81
2023/01/20 05:10:22;;;;;;;;;;;;;;;;;;4961409;29;19922;-80
2023/01/20 05:12:48;;;;;;;;;;;;;;;;;;4960608;29;19910;-81
2023/01/20 05:15:14;;;;;;;;;;;;;;;;;;4942293;29;19937;-80
2023/01/20 05:17:42;;;;;;;;;;;;;;;;;;4953287;28;19898;-81
2023/01/20 05:20:09;;;;;;;;;;;;;;;;;;4980729;28;19925;-79
2023/01/20 05:22:35;;;;;;;;;;;;;;;;;;4997534;28;19919;-80
2023/01/20 05:25:01;;;;;;;;;;;;;;;;;;4965240;28;19924;-80
2023/01/20 05:27:27;;;;;;;;;;;;;;;;;;4996329;28;19921;-80
2023/01/20 05:29:52;;;;;;;;;;;;;;;;;;4964049;28;19914;-81
2023/01/20 05:32:18;;;;;;;;;;;;;;;;;;4979329;28;20349;-81
2023/01/20 05:34:44;;;;;;;;;;;;;;;;;;4980094;28;19902;-81
2023/01/20 05:37:10;;;;;;;;;;;;;;;;;;4963364;28;19920;-80
2023/01/20 05:39:36;;;;;;;;;;;;;;;;;;4979100;28;19919;-81
2023/01/20 05:42:02;;;;;;;;;;;;;;;;;;4993551;28;19918;-80
2023/01/20 05:44:28;;;;;;;;;;;;;;;;;;4995225;28;19918;-79
2023/01/20 05:46:54;;;;;;;;;;;;;;;;;;4977027;28;19910;-79
2023/01/20 05:49:19;;;;;;;;;;;;;;;;;;4977645;28;20102;-80
2023/01/20 05:51:45;;;;;;;;;;;;;;;;;;4978290;28;19921;-79
2023/01/20 05:54:11;;;;;;;;;;;;;;;;;;4992613;28;19953;-80
2023/01/20 05:56:37;;;;;;;;;;;;;;;;;;4978200;28;19914;-79
2023/01/20 05:59:05;;;;;;;;;;;;;;;;;;4994526;28;19914;-81
2023/01/20 06:01:31;;;;;;;;;;;;;;;;;;4996515;28;19953;-80
2023/01/20 06:03:57;;;;;;;;;;;;;;;;;;4994455;28;19915;-80
2023/01/20 06:06:22;;;;;;;;;;;;;;;;;;4979668;28;19914;-80
2023/01/20 06:08:48;;;;;;;;;;;;;;;;;;4979092;28;19925;-81
2023/01/20 06:11:14;;;;;;;;;;;;;;;;;;4979156;28;19941;-80
2023/01/20 06:13:40;;;;;;;;;;;;;;;;;;4962633;28;19914;-81
2023/01/20 06:16:05;;;;;;;;;;;;;;;;;;4978364;28;19957;-80
2023/01/20 06:18:31;;;;;;;;;;;;;;;;;;4946303;28;19985;-79
2023/01/20 06:20:57;;;;;;;;;;;;;;;;;;4965253;28;19976;-80
2023/01/20 06:23:23;;;;;;;;;;;;;;;;;;4996454;28;19918;-81
2023/01/20 06:25:49;;;;;;;;;;;;;;;;;;4976954;28;19914;-80
2023/01/20 06:28:15;;;;;;;;;;;;;;;;;;4978386;28;20004;-82
2023/01/20 06:30:42;;;;;;;;;;;;;;;;;;5536231;23;19944;-80
2023/01/20 06:33:10;;;;;;;;;;;;;;;;;;5028075;28;19921;-80
2023/01/20 06:35:36;;;;;;;;;;;;;;;;;;4998364;28;19944;-80
2023/01/20 06:38:01;;;;;;;;;;;;;;;;;;4985486;28;20029;-80
2023/01/20 06:40:28;;;;;;;;;;;;;;;;;;5034058;28;19917;-80
2023/01/20 06:42:54;;;;;;;;;;;;;;;;;;5000894;28;20122;-80
2023/01/20 06:45:20;;;;;;;;;;;;;;;;;;4983623;28;19925;-80
2023/01/20 06:47:46;;;;;;;;;;;;;;;;;;5032556;28;20006;-81
2023/01/20 06:50:12;;;;;;;;;;;;;;;;;;5001818;28;19920;-80
2023/01/20 06:52:38;;;;;;;;;;;;;;;;;;4985937;28;20079;-81
2023/01/20 06:55:07;;;;;;;;;;;;;;;;;;4993330;28;19925;-80
2023/01/20 06:57:35;;;;;;;;;;;;;;;;;;4962570;28;20013;-80
2023/01/20 07:00:00;;;;;;;;;;;;;;;;;;4979709;28;19914;-80
2023/01/20 07:02:26;;;;;;;;;;;;;;;;;;4998503;28;19937;-80
2023/01/20 07:04:52;;;;;;;;;;;;;;;;;;4980480;28;19905;-81
2023/01/20 07:07:18;;;;;;;;;;;;;;;;;;4964457;28;20006;-79
2023/01/20 07:09:44;;;;;;;;;;;;;;;;;;4997099;28;19918;-81
2023/01/20 07:12:13;;;;;;;;;;;;;;;;;;4966019;28;19921;-80
2023/01/20 07:14:39;;;;;;;;;;;;;;;;;;4980992;28;19929;-81
2023/01/20 07:17:06;;;;;;;;;;;;;;;;;;4979227;28;19928;-81
2023/01/20 07:19:32;;;;;;;;;;;;;;;;;;4979813;28;19945;-82
2023/01/20 07:21:58;;;;;;;;;;;;;;;;;;4967576;28;19898;-81
2023/01/20 07:24:24;;;;;;;;;;;;;;;;;;4983014;28;19917;-82
2023/01/20 07:26:50;;;;;;;;;;;;;;;;;;4998621;28;19920;-82
2023/01/20 07:29:16;;;;;;;;;;;;;;;;;;5010942;28;19977;-82
2023/01/20 07:31:42;;;;;;;;;;;;;;;;;;4980360;28;19924;-81
2023/01/20 07:36:50;;;;;;;;;;;;;;;;;;5744615;23;19910;-84
2023/01/20 07:42:03;;;;;;;;;;;;;;;;;;5515790;23;19974;-85
2023/01/20 07:44:56;;;;;;;;;;;;;;;;;;5614014;23;19948;-83
2023/01/20 07:47:30;;;;;;;;;;;;;;;;;;5135388;23;20390;-80
2023/01/20 07:49:59;;;;;;;;;;;;;;;;;;4986237;28;19914;-82
2023/01/20 07:52:34;;;;;;;;;;;;;;;;;;5004909;28;19913;-80
2023/01/20 07:55:00;;;;;;;;;;;;;;;;;;4999773;28;19924;-79
2023/01/20 07:57:26;;;;;;;;;;;;;;;;;;5015360;28;19913;-79
2023/01/20 07:59:52;;;;;;;;;;;;;;;;;;4981384;28;19920;-81
2023/01/20 08:02:18;;;;;;;;;;;;;;;;;;5013094;28;19913;-80
2023/01/20 08:04:43;;;;;;;;;;;;;;;;;;4995253;28;20341;-80
2023/01/20 08:07:09;;;;;;;;;;;;;;;;;;5012176;28;19913;-79
2023/01/20 08:09:34;;;;;;;;;;;;;;;;;;4995185;28;19920;-78
2023/01/20 08:12:01;;;;;;;;;;;;;;;;;;4996045;28;19921;-81
2023/01/20 08:14:26;;;;;;;;;;;;;;;;;;4995427;28;19929;-79
2023/01/20 08:16:52;;;;;;;;;;;;;;;;;;4994491;28;19914;-80
2023/01/20 08:19:18;;;;;;;;;;;;;;;;;;4992987;28;19914;-77
2023/01/20 08:21:44;;;;;;;;;;;;;;;;;;4994115;28;19920;-80
2023/01/20 08:24:09;;;;;;;;;;;;;;;;;;4993154;28;19913;-78
2023/01/20 08:26:46;;;;;;;;;;;;;;;;;;4988908;28;19921;-82
2023/01/20 08:29:23;;;;;;;;;;;;;;;;;;4986184;28;19913;-79
2023/01/20 08:31:49;;;;;;;;;;;;;;;;;;5008605;28;19996;-78
2023/01/20 08:34:17;;;;;;;;;;;;;;;;;;5008234;28;19914;-77
2023/01/20 08:36:42;;;;;;;;;;;;;;;;;;4992948;28;19928;-79
2023/01/20 08:39:11;;;;;;;;;;;;;;;;;;5006086;28;19913;-78
2023/01/20 08:41:40;;;;;;;;;;;;;;;;;;4991923;28;19913;-77
2023/01/20 08:44:06;;;;;;;;;;;;;;;;;;4989550;28;19914;-78
2023/01/20 08:46:32;;;;;;;;;;;;;;;;;;5003649;28;19913;-79
2023/01/20 08:48:57;;;;;;;;;;;;;;;;;;4986776;28;19918;-76
2023/01/20 08:51:23;;;;;;;;;;;;;;;;;;5022926;28;19913;-77
2023/01/20 08:53:48;;;;;;;;;;;;;;;;;;4991349;28;19988;-78
2023/01/20 08:56:16;;;;;;;;;;;;;;;;;;4990540;28;19918;-77
2023/01/20 08:58:43;;;;;;;;;;;;;;;;;;4975275;28;19920;-80
2023/01/20 09:01:09;;;;;;;;;;;;;;;;;;4992477;28;19968;-77
2023/01/20 09:03:35;;;;;;;;;;;;;;;;;;5025940;28;19914;-78
2023/01/20 09:06:00;;;;;;;;;;;;;;;;;;5010030;28;19914;-78
2023/01/20 09:08:26;;;;;;;;;;;;;;;;;;5011628;28;19920;-78
2023/01/20 09:10:53;;;;;;;;;;;;;;;;;;5010756;28;20001;-78
2023/01/20 09:13:19;;;;;;;;;;;;;;;;;;5009056;28;19920;-78
2023/01/20 09:15:44;;;;;;;;;;;;;;;;;;5028684;28;20016;-78
2023/01/20 09:18:10;;;;;;;;;;;;;;;;;;4980045;28;19924;-79
2023/01/20 09:20:36;;;;;;;;;;;;;;;;;;4997266;28;19921;-78
2023/01/20 09:23:02;;;;;;;;;;;;;;;;;;5010270;28;19919;-78
2023/01/20 09:25:30;;;;;;;;;;;;;;;;;;4993341;28;19921;-78
2023/01/20 09:27:56;;;;;;;;;;;;;;;;;;4976044;28;19913;-78
2023/01/20 09:30:22;;;;;;;;;;;;;;;;;;5011296;28;19936;-77
2023/01/20 09:32:47;;;;;;;;;;;;;;;;;;5009691;28;19975;-78
2023/01/20 09:35:16;;;;;;;;;;;;;;;;;;4999440;23;19933;-80
2023/01/20 09:45:53;;;;;;;;;;;;;;;;;;4979076;28;19981;-80
2023/01/20 09:53:47;;;;;;;;;;;;;;;;;;4960886;28;19914;-80
2023/01/20 09:56:13;;;;;;;;;;;;;;;;;;4961557;28;19918;-79
2023/01/20 09:58:38;;;;;;;;;;;;;;;;;;4961092;28;19965;-80
2023/01/20 10:01:05;;;;;;;;;;;;;;;;;;4946180;28;19993;-78
2023/01/20 10:03:35;;;;;;;;;;;;;;;;;;4978583;28;19940;-80
2023/01/20 10:06:01;;;;;;;;;;;;;;;;;;4960427;28;19914;-79
2023/01/20 10:08:26;;;;;;;;;;;;;;;;;;4977327;28;19937;-79
2023/01/20 10:10:52;;;;;;;;;;;;;;;;;;4960863;28;19915;-80
2023/01/20 10:13:18;;;;;;;;;;;;;;;;;;4960509;28;19942;-80
2023/01/20 10:15:43;;;;;;;;;;;;;;;;;;4960801;28;20298;-79
2023/01/20 10:18:09;;;;;;;;;;;;;;;;;;4960822;28;20008;-80
2023/01/20 10:20:34;;;;;;;;;;;;;;;;;;4960498;28;19960;-79
2023/01/20 10:23:00;;;;;;;;;;;;;;;;;;4927988;28;19973;-79
2023/01/20 10:25:27;;;;;;;;;;;;;;;;;;4944372;28;19968;-80
2023/01/20 10:27:52;;;;;;;;;;;;;;;;;;4960922;28;19914;-80
2023/01/20 10:30:17;;;;;;;;;;;;;;;;;;4960300;28;20001;-80
2023/01/20 10:32:44;;;;;;;;;;;;;;;;;;4977434;28;19918;-80
2023/01/20 10:35:10;;;;;;;;;;;;;;;;;;4976737;28;19918;-80
2023/01/20 10:37:35;;;;;;;;;;;;;;;;;;4959247;28;19914;-80
2023/01/20 10:40:00;;;;;;;;;;;;;;;;;;4977176;28;20021;-80
2023/01/20 10:42:27;;;;;;;;;;;;;;;;;;4944534;28;19915;-79
2023/01/20 10:44:52;;;;;;;;;;;;;;;;;;4959663;28;20411;-79
2023/01/20 10:47:18;;;;;;;;;;;;;;;;;;4977149;28;20012;-79
2023/01/20 10:49:44;;;;;;;;;;;;;;;;;;4976622;28;19914;-80
2023/01/20 10:52:09;;;;;;;;;;;;;;;;;;4959738;28;20417;-80
2023/01/20 10:54:35;;;;;;;;;;;;;;;;;;4976590;28;19925;-80
2023/01/20 10:57:00;;;;;;;;;;;;;;;;;;4959272;28;19961;-79
2023/01/20 10:59:26;;;;;;;;;;;;;;;;;;4958944;28;19961;-79
2023/01/20 11:01:51;;;;;;;;;;;;;;;;;;4976709;28;19914;-80
2023/01/20 11:04:17;;;;;;;;;;;;;;;;;;4959968;28;19957;-79
2023/01/20 11:06:42;;;;;;;;;;;;;;;;;;4977153;28;19933;-80
2023/01/20 11:09:08;;;;;;;;;;;;;;;;;;4976372;28;19914;-79
2023/01/20 11:11:33;;;;;;;;;;;;;;;;;;4977220;28;20452;-80
2023/01/20 11:13:58;;;;;;;;;;;;;;;;;;4977018;28;19914;-80
2023/01/20 11:16:24;;;;;;;;;;;;;;;;;;4959657;28;20299;-79
2023/01/20 11:18:49;;;;;;;;;;;;;;;;;;4977976;28;20299;-79
2023/01/20 11:21:15;;;;;;;;;;;;;;;;;;4959815;28;19964;-79
2023/01/20 11:23:40;;;;;;;;;;;;;;;;;;4944882;28;19921;-79
2023/01/20 11:26:08;;;;;;;;;;;;;;;;;;4960529;28;19922;-80
2023/01/20 11:28:34;;;;;;;;;;;;;;;;;;4977278;28;19935;-80
2023/01/20 11:30:59;;;;;;;;;;;;;;;;;;4959636;28;19914;-79
2023/01/20 11:33:25;;;;;;;;;;;;;;;;;;4976971;28;20379;-80
2023/01/20 11:35:50;;;;;;;;;;;;;;;;;;4958815;28;20338;-79
2023/01/20 11:38:16;;;;;;;;;;;;;;;;;;4958725;28;19914;-79
2023/01/20 11:40:41;;;;;;;;;;;;;;;;;;4958721;28;19914;-80
2023/01/20 11:43:06;;;;;;;;;;;;;;;;;;4976170;28;19914;-80
2023/01/20 11:45:33;;;;;;;;;;;;;;;;;;4958351;28;19964;-79
2023/01/20 11:47:59;;;;;;;;;;;;;;;;;;4977477;28;19914;-80
2023/01/20 11:50:24;;;;;;;;;;;;;;;;;;4961988;28;19922;-80
2023/01/20 11:52:50;;;;;;;;;;;;;;;;;;4978442;28;19946;-80
2023/01/20 11:55:15;;;;;;;;;;;;;;;;;;4978891;28;20363;-80
2023/01/20 11:57:41;;;;;;;;;;;;;;;;;;4978749;28;19921;-80
2023/01/20 12:00:06;;;;;;;;;;;;;;;;;;4961326;28;19914;-79
2023/01/20 12:02:37;;;;;;;;;;;;;;;;;;4958913;28;19914;-80
2023/01/20 12:05:02;;;;;;;;;;;;;;;;;;4958128;28;19941;-80
2023/01/20 12:07:28;;;;;;;;;;;;;;;;;;4926592;28;19925;-79
2023/01/20 12:09:54;;;;;;;;;;;;;;;;;;4942254;28;20049;-79
2023/01/20 12:12:19;;;;;;;;;;;;;;;;;;4958493;28;20399;-79
2023/01/20 12:14:45;;;;;;;;;;;;;;;;;;4957984;28;19940;-79
2023/01/20 12:17:11;;;;;;;;;;;;;;;;;;4942269;28;19953;-79
2023/01/20 12:19:36;;;;;;;;;;;;;;;;;;4975496;28;19976;-79
2023/01/20 12:22:03;;;;;;;;;;;;;;;;;;4957863;28;19989;-79
2023/01/20 12:25:06;;;;;;;;;;;;;;;;;;4974572;28;20396;-79
2023/01/20 12:27:13;;;;;;;;;;;;;;;;;;4974749;28;19954;-79
2023/01/20 12:29:43;;;;;;;;;;;;;;;;;;4974951;28;20422;-79
2023/01/20 12:32:09;;;;;;;;;;;;;;;;;;4958216;28;19977;-79
2023/01/20 12:34:34;;;;;;;;;;;;;;;;;;4975457;28;20375;-79
2023/01/20 12:37:00;;;;;;;;;;;;;;;;;;4975643;28;19914;-79
2023/01/20 12:39:25;;;;;;;;;;;;;;;;;;4958760;28;19945;-79
2023/01/20 12:41:51;;;;;;;;;;;;;;;;;;4975418;28;19914;-79
2023/01/20 12:44:16;;;;;;;;;;;;;;;;;;4942393;28;20294;-79
2023/01/20 12:46:41;;;;;;;;;;;;;;;;;;4958562;28;19973;-79
2023/01/20 12:49:07;;;;;;;;;;;;;;;;;;4975516;28;19921;-79
2023/01/20 12:51:32;;;;;;;;;;;;;;;;;;4975528;28;20298;-80
2023/01/20 12:53:58;;;;;;;;;;;;;;;;;;4958411;28;19921;-80
2023/01/20 12:56:23;;;;;;;;;;;;;;;;;;4984490;28;19981;-81
2023/01/20 12:58:55;;;;;;;;;;;;;;;;;;4932931;28;19918;-78
2023/01/20 13:01:23;;;;;;;;;;;;;;;;;;4978788;28;19914;-84
2023/01/20 13:03:52;;;;;;;;;;;;;;;;;;4963246;29;19929;-84
2023/01/20 13:06:18;;;;;;;;;;;;;;;;;;4961863;29;19894;-83
2023/01/20 13:08:53;;;;;;;;;;;;;;;;;;4962032;29;19899;-83
2023/01/20 13:11:23;;;;;;;;;;;;;;;;;;4946046;29;19922;-84
2023/01/20 13:13:51;;;;;;;;;;;;;;;;;;4945382;29;19914;-83
2023/01/20 13:16:20;;;;;;;;;;;;;;;;;;4961982;29;19922;-83
2023/01/20 13:18:49;;;;;;;;;;;;;;;;;;4960739;29;19914;-84
2023/01/20 13:21:17;;;;;;;;;;;;;;;;;;4963134;28;20007;-84
2023/01/20 13:23:47;;;;;;;;;;;;;;;;;;4952607;29;19937;-83
2023/01/20 13:26:31;;;;;;;;;;;;;;;;;;4964114;28;19998;-81
2023/01/20 13:28:59;;;;;;;;;;;;;;;;;;4976379;29;19922;-83
2023/01/20 13:31:25;;;;;;;;;;;;;;;;;;4928706;29;19914;-83
2023/01/20 13:33:51;;;;;;;;;;;;;;;;;;4973173;28;19906;-84
2023/01/20 13:36:17;;;;;;;;;;;;;;;;;;4949222;28;19929;-83
2023/01/20 13:38:44;;;;;;;;;;;;;;;;;;5002253;28;19945;-82
2023/01/20 13:41:20;;;;;;;;;;;;;;;;;;4955258;28;19974;-83
2023/01/20 13:43:48;;;;;;;;;;;;;;;;;;4986086;28;19902;-83
2023/01/20 13:46:18;;;;;;;;;;;;;;;;;;4970195;28;19903;-83
2023/01/20 13:48:54;;;;;;;;;;;;;;;;;;4951299;28;19903;-82
2023/01/20 13:51:48;;;;;;;;;;;;;;;;;;4977965;28;19937;-83
2023/01/20 13:54:42;;;;;;;;;;;;;;;;;;4960958;29;19929;-82
2023/01/20 13:57:07;;;;;;;;;;;;;;;;;;4939362;28;19969;-82
2023/01/20 13:59:36;;;;;;;;;;;;;;;;;;4981195;28;19911;-82
2023/01/20 14:02:02;;;;;;;;;;;;;;;;;;4944494;28;19914;-83
2023/01/20 14:04:28;;;;;;;;;;;;;;;;;;4978528;28;19980;-82
2023/01/20 14:06:53;;;;;;;;;;;;;;;;;;4981812;28;19898;-82
2023/01/20 14:09:19;;;;;;;;;;;;;;;;;;4962457;28;19914;-82
2023/01/20 14:11:45;;;;;;;;;;;;;;;;;;4978449;28;19911;-82
2023/01/20 14:14:10;;;;;;;;;;;;;;;;;;4977215;28;19925;-82
2023/01/20 14:16:35;;;;;;;;;;;;;;;;;;4973287;28;19952;-82
2023/01/20 14:19:01;;;;;;;;;;;;;;;;;;4980019;28;19914;-82
2023/01/20 14:21:26;;;;;;;;;;;;;;;;;;4960413;28;19914;-83
2023/01/20 14:23:52;;;;;;;;;;;;;;;;;;4965114;28;19918;-83
2023/01/20 14:26:18;;;;;;;;;;;;;;;;;;4981382;28;19921;-82
2023/01/20 14:28:44;;;;;;;;;;;;;;;;;;4956379;29;19923;-82
2023/01/20 14:31:10;;;;;;;;;;;;;;;;;;4991309;28;19921;-82
2023/01/20 14:33:38;;;;;;;;;;;;;;;;;;4974261;28;19919;-82
2023/01/20 14:36:16;;;;;;;;;;;;;;;;;;4952192;28;19978;-83
2023/01/20 14:38:47;;;;;;;;;;;;;;;;;;5929492;23;19924;-82
2023/01/20 14:41:13;;;;;;;;;;;;;;;;;;4991206;28;19921;-84
2023/01/20 14:43:39;;;;;;;;;;;;;;;;;;5024482;28;19933;-84
2023/01/20 14:46:07;;;;;;;;;;;;;;;;;;5022643;28;19917;-84
2023/01/20 14:48:35;;;;;;;;;;;;;;;;;;5006771;28;19902;-84
2023/01/20 14:51:05;;;;;;;;;;;;;;;;;;5038957;28;19907;-83
2023/01/20 14:53:31;;;;;;;;;;;;;;;;;;5039530;28;19910;-84
2023/01/20 14:55:57;;;;;;;;;;;;;;;;;;5022195;28;19926;-83
2023/01/20 14:58:23;;;;;;;;;;;;;;;;;;4990483;28;19901;-84
2023/01/20 15:00:51;;;;;;;;;;;;;;;;;;5040332;28;19917;-84
2023/01/20 15:08:43;;;;;;;;;;;;;;;;;;5483470;23;19925;-84
2023/01/20 15:11:09;;;;;;;;;;;;;;;;;;5018950;28;19913;-85
2023/01/20 15:13:41;;;;;;;;;;;;;;;;;;5001235;28;19930;-85
2023/01/20 15:16:07;;;;;;;;;;;;;;;;;;4986062;28;19918;-85
2023/01/20 15:18:33;;;;;;;;;;;;;;;;;;4983523;28;19917;-85
2023/01/20 15:20:59;;;;;;;;;;;;;;;;;;4982882;28;19913;-83
2023/01/20 15:23:27;;;;;;;;;;;;;;;;;;4968093;28;19918;-83
2023/01/20 15:25:56;;;;;;;;;;;;;;;;;;4982689;28;19913;-84
2023/01/20 15:28:25;;;;;;;;;;;;;;;;;;4999927;28;19921;-84
2023/01/20 15:30:51;;;;;;;;;;;;;;;;;;4993007;28;19909;-85
2023/01/20 15:36:56;;;;;;;;;;;;;;;;;;4954783;29;19910;-84
2023/01/20 15:39:27;;;;;;;;;;;;;;;;;;4926812;29;19927;-85
2023/01/20 15:41:54;;;;;;;;;;;;;;;;;;5583336;23;19963;-84
2023/01/20 15:44:24;;;;;;;;;;;;;;;;;;5002690;28;19920;-85
2023/01/20 15:46:52;;;;;;;;;;;;;;;;;;4985773;28;19906;-84
2023/01/20 15:49:20;;;;;;;;;;;;;;;;;;4986658;28;19914;-84
2023/01/20 15:52:11;;;;;;;;;;;;;;;;;;5843566;23;21194;-85
2023/01/20 15:54:43;;;;;;;;;;;;;;;;;;5022203;28;19921;-83
2023/01/20 15:57:09;;;;;;;;;;;;;;;;;;5039453;28;19992;-84
2023/01/20 15:59:44;;;;;;;;;;;;;;;;;;5005364;28;19901;-84
2023/01/20 16:02:10;;;;;;;;;;;;;;;;;;4997986;28;19948;-85
2023/01/20 16:04:40;;;;;;;;;;;;;;;;;;5395108;23;19932;-85
2023/01/20 16:07:08;;;;;;;;;;;;;;;;;;4990347;28;19924;-86
2023/01/20 16:09:37;;;;;;;;;;;;;;;;;;5355235;23;19988;-85
2023/01/20 16:12:08;;;;;;;;;;;;;;;;;;5022316;28;19910;-84
2023/01/20 16:14:33;;;;;;;;;;;;;;;;;;5020180;28;19925;-84
2023/01/20 16:16:59;;;;;;;;;;;;;;;;;;5020968;28;19893;-84
2023/01/20 16:19:25;;;;;;;;;;;;;;;;;;5004456;28;19905;-84
2023/01/20 16:21:50;;;;;;;;;;;;;;;;;;5107955;23;19953;-83
2023/01/20 16:27:04;;;;;;;;;;;;;;;;;;5023799;28;19932;-84
2023/01/20 16:29:30;;;;;;;;;;;;;;;;;;4970061;28;19914;-84
2023/01/20 16:31:56;;;;;;;;;;;;;;;;;;5001593;28;19949;-82
2023/01/20 16:34:22;;;;;;;;;;;;;;;;;;5001839;28;19902;-84
2023/01/20 16:36:50;;;;;;;;;;;;;;;;;;4969949;28;19902;-84
2023/01/20 16:39:16;;;;;;;;;;;;;;;;;;5002249;28;19917;-83
2023/01/20 16:41:41;;;;;;;;;;;;;;;;;;5002082;28;19917;-83
2023/01/20 16:44:07;;;;;;;;;;;;;;;;;;4986261;28;19937;-84
2023/01/20 16:46:33;;;;;;;;;;;;;;;;;;4986458;28;19945;-84
2023/01/20 16:49:02;;;;;;;;;;;;;;;;;;5063325;23;19943;-83
2023/01/20 16:51:27;;;;;;;;;;;;;;;;;;4989581;28;19917;-84
2023/01/20 16:56:35;;;;;;;;;;;;;;;;;;5195591;23;19937;-85
2023/01/20 16:59:04;;;;;;;;;;;;;;;;;;5021897;28;19917;-84
2023/01/20 17:01:30;;;;;;;;;;;;;;;;;;5001125;28;19924;-83
2023/01/20 19:50:40;;;;;;;;;;;;;;;;;;5618492;23;19926;-82
2023/01/20 20:06:47;;;;;;;;;;;;;;;;;;5449596;23;19913;-84
2023/01/20 20:11:56;;;;;;;;;;;;;;;;;;5572905;23;19925;-82
2023/01/20 20:14:22;;;;;;;;;;;;;;;;;;5613704;23;19924;-82
2023/01/20 20:19:28;;;;;;;;;;;;;;;;;;5257475;23;19925;-85
2023/01/20 20:22:00;;;;;;;;;;;;;;;;;;4991757;28;19901;-86